PRIVATE WETTERSTATION BILLIGHEIM-ALLFELD                       ZURCK
Wetterdaten: Freitag, 11.03.2016
Datum Zeit Temp. A. Temp. A. min Temp. A. max Feuchte A. Luftdruck Regen Wind Richtung Richtung Sonnenschein ET Solar Taupunkt Windchill Windben Empfang
11.03.2016 00:00 1,1 C 1,1 C 1,2 C 87 % 1022,1 hPa 0,0 l/m 1,6 km/h (1 Bft) NO 45 0 min 0,000 mm 0 W/m -0,8 C 1,1 C 6,4 km/h (2 Bft) 98 %
11.03.2016 00:10 1,0 C 1,0 C 1,1 C 87 % 1022,2 hPa 0,0 l/m 1,6 km/h (1 Bft) NO 45 0 min 0,000 mm 0 W/m -0,9 C 1,0 C 6,4 km/h (2 Bft) 97 %
11.03.2016 00:20 0,9 C 0,9 C 1,0 C 88 % 1022,2 hPa 0,0 l/m 0,0 km/h (0 Bft) NO 45 0 min 0,000 mm 0 W/m -0,9 C 0,9 C 6,4 km/h (2 Bft) 98 %
11.03.2016 00:30 0,9 C 0,9 C 0,9 C 88 % 1022,4 hPa 0,0 l/m 0,0 km/h (0 Bft) NO 45 0 min 0,000 mm 0 W/m -0,9 C 0,9 C 1,6 km/h (1 Bft) 89 %
11.03.2016 00:40 0,8 C 0,8 C 0,9 C 88 % 1022,6 hPa 0,0 l/m 0,0 km/h (0 Bft) N 0 0 min 0,000 mm 0 W/m -1,0 C 0,8 C 0,0 km/h (0 Bft) 98 %
11.03.2016 00:50 0,7 C 0,7 C 0,8 C 89 % 1022,4 hPa 0,0 l/m 0,0 km/h (0 Bft) NO 45 0 min 0,000 mm 0 W/m -0,9 C 0,7 C 3,2 km/h (1 Bft) 98 %
11.03.2016 01:00 0,6 C 0,6 C 0,7 C 89 % 1022,5 hPa 0,0 l/m 0,0 km/h (0 Bft) N 0 0 min 0,000 mm 0 W/m -1,0 C 0,6 C 0,0 km/h (0 Bft) 97 %
11.03.2016 01:10 0,4 C 0,3 C 0,6 C 89 % 1022,5 hPa 0,0 l/m 0,0 km/h (0 Bft) N 0 0 min 0,000 mm 0 W/m -1,2 C 0,4 C 0,0 km/h (0 Bft) 99 %
11.03.2016 01:20 0,2 C 0,2 C 0,3 C 89 % 1022,6 hPa 0,0 l/m 0,0 km/h (0 Bft) N 0 0 min 0,000 mm 0 W/m -1,4 C 0,2 C 0,0 km/h (0 Bft) 97 %
11.03.2016 01:30 0,1 C 0,1 C 0,2 C 90 % 1022,6 hPa 0,0 l/m 0,0 km/h (0 Bft) NO 45 0 min 0,000 mm 0 W/m -1,3 C 0,1 C 1,6 km/h (1 Bft) 97 %
11.03.2016 01:40 -0,1 C -0,1 C 0,1 C 90 % 1022,7 hPa 0,0 l/m 0,0 km/h (0 Bft) N 0 0 min 0,000 mm 0 W/m -1,5 C -0,1 C 0,0 km/h (0 Bft) 92 %
11.03.2016 01:50 -0,3 C -0,3 C -0,1 C 90 % 1022,7 hPa 0,0 l/m 0,0 km/h (0 Bft) N 0 0 min 0,000 mm 0 W/m -1,7 C -0,3 C 0,0 km/h (0 Bft) 95 %
11.03.2016 02:00 -0,6 C -0,6 C -0,3 C 90 % 1022,6 hPa 0,0 l/m 0,0 km/h (0 Bft) N 0 0 min 0,000 mm 0 W/m -2,0 C -0,6 C 0,0 km/h (0 Bft) 97 %
11.03.2016 02:10 -0,8 C -0,8 C -0,6 C 90 % 1022,7 hPa 0,0 l/m 0,0 km/h (0 Bft) N 0 0 min 0,000 mm 0 W/m -2,2 C -0,8 C 0,0 km/h (0 Bft) 97 %
11.03.2016 02:20 -0,9 C -0,9 C -0,8 C 91 % 1022,7 hPa 0,0 l/m 0,0 km/h (0 Bft) N 0 0 min 0,000 mm 0 W/m -2,2 C -0,9 C 0,0 km/h (0 Bft) 98 %
11.03.2016 02:30 -1,1 C -1,1 C -0,9 C 91 % 1022,7 hPa 0,0 l/m 0,0 km/h (0 Bft) N 0 0 min 0,000 mm 0 W/m -2,4 C -1,1 C 0,0 km/h (0 Bft) 97 %
11.03.2016 02:40 -1,2 C -1,2 C -1,1 C 91 % 1022,7 hPa 0,0 l/m 0,0 km/h (0 Bft) N 0 0 min 0,000 mm 0 W/m -2,5 C -1,2 C 0,0 km/h (0 Bft) 98 %
11.03.2016 02:50 -1,3 C -1,3 C -1,2 C 91 % 1022,7 hPa 0,0 l/m 0,0 km/h (0 Bft) N 0 0 min 0,000 mm 0 W/m -2,6 C -1,3 C 0,0 km/h (0 Bft) 98 %
11.03.2016 03:00 -1,3 C -1,3 C -1,3 C 91 % 1022,7 hPa 0,0 l/m 0,0 km/h (0 Bft) N 0 0 min 0,000 mm 0 W/m -2,6 C -1,3 C 0,0 km/h (0 Bft) 89 %
11.03.2016 03:10 -1,4 C -1,4 C -1,3 C 91 % 1022,8 hPa 0,0 l/m 0,0 km/h (0 Bft) N 0 0 min 0,000 mm 0 W/m -2,7 C -1,4 C 0,0 km/h (0 Bft) 98 %
11.03.2016 03:20 -1,4 C -1,4 C -1,4 C 91 % 1022,8 hPa 0,0 l/m 0,0 km/h (0 Bft) N 0 0 min 0,000 mm 0 W/m -2,7 C -1,4 C 0,0 km/h (0 Bft) 98 %
11.03.2016 03:30 -1,4 C -1,4 C -1,4 C 91 % 1022,8 hPa 0,0 l/m 0,0 km/h (0 Bft) NO 45 0 min 0,000 mm 0 W/m -2,7 C -1,4 C 1,6 km/h (1 Bft) 98 %
11.03.2016 03:40 -1,6 C -1,6 C -1,4 C 91 % 1022,8 hPa 0,0 l/m 0,0 km/h (0 Bft) N 0 0 min 0,000 mm 0 W/m -2,9 C -1,6 C 0,0 km/h (0 Bft) 97 %
11.03.2016 03:50 -1,7 C -1,7 C -1,6 C 91 % 1022,8 hPa 0,0 l/m 0,0 km/h (0 Bft) N 0 0 min 0,000 mm 0 W/m -3,0 C -1,7 C 0,0 km/h (0 Bft) 98 %
11.03.2016 04:00 -1,7 C -1,7 C -1,7 C 91 % 1023,0 hPa 0,0 l/m 0,0 km/h (0 Bft) N 0 0 min 0,000 mm 0 W/m -3,0 C -1,7 C 0,0 km/h (0 Bft) 98 %
11.03.2016 04:10 -1,8 C -1,8 C -1,7 C 91 % 1022,9 hPa 0,0 l/m 0,0 km/h (0 Bft) N 0 0 min 0,000 mm 0 W/m -3,1 C -1,8 C 0,0 km/h (0 Bft) 88 %
11.03.2016 04:20 -1,8 C -1,8 C -1,8 C 91 % 1023,0 hPa 0,0 l/m 0,0 km/h (0 Bft) N 0 0 min 0,000 mm 0 W/m -3,1 C -1,8 C 0,0 km/h (0 Bft) 98 %
11.03.2016 04:30 -1,8 C -1,8 C -1,8 C 91 % 1023,0 hPa 0,0 l/m 0,0 km/h (0 Bft) NO 45 0 min 0,000 mm 0 W/m -3,1 C -1,8 C 1,6 km/h (1 Bft) 98 %
11.03.2016 04:40 -1,8 C -1,8 C -1,7 C 91 % 1023,0 hPa 0,0 l/m 0,0 km/h (0 Bft) N 0 0 min 0,000 mm 0 W/m -3,1 C -1,8 C 0,0 km/h (0 Bft) 98 %
11.03.2016 04:50 -1,8 C -1,8 C -1,8 C 91 % 1023,0 hPa 0,0 l/m 0,0 km/h (0 Bft) NO 45 0 min 0,000 mm 0 W/m -3,1 C -1,8 C 1,6 km/h (1 Bft) 97 %
11.03.2016 05:00 -1,9 C -1,9 C -1,8 C 91 % 1023,1 hPa 0,0 l/m 0,0 km/h (0 Bft) N 0 0 min 0,000 mm 0 W/m -3,2 C -1,9 C 0,0 km/h (0 Bft) 98 %
11.03.2016 05:10 -1,9 C -1,9 C -1,9 C 91 % 1023,0 hPa 0,0 l/m 0,0 km/h (0 Bft) N 0 0 min 0,000 mm 0 W/m -3,2 C -1,9 C 0,0 km/h (0 Bft) 98 %
11.03.2016 05:20 -2,1 C -2,1 C -1,9 C 91 % 1023,0 hPa 0,0 l/m 0,0 km/h (0 Bft) N 0 0 min 0,000 mm 0 W/m -3,4 C -2,1 C 0,0 km/h (0 Bft) 89 %
11.03.2016 05:30 -2,2 C -2,2 C -2,1 C 91 % 1023,1 hPa 0,0 l/m 0,0 km/h (0 Bft) N 0 0 min 0,000 mm 0 W/m -3,5 C -2,2 C 0,0 km/h (0 Bft) 98 %
11.03.2016 05:40 -2,1 C -2,2 C -2,1 C 91 % 1023,2 hPa 0,0 l/m 0,0 km/h (0 Bft) N 0 0 min 0,000 mm 0 W/m -3,4 C -2,1 C 0,0 km/h (0 Bft) 98 %
11.03.2016 05:50 -2,0 C -2,1 C -2,0 C 91 % 1023,2 hPa 0,0 l/m 0,0 km/h (0 Bft) N 0 0 min 0,000 mm 0 W/m -3,3 C -2,0 C 0,0 km/h (0 Bft) 98 %
11.03.2016 06:00 -2,1 C -2,1 C -2,0 C 91 % 1023,4 hPa 0,0 l/m 0,0 km/h (0 Bft) N 0 0 min 0,000 mm 0 W/m -3,4 C -2,1 C 0,0 km/h (0 Bft) 98 %
11.03.2016 06:10 -1,9 C -2,1 C -1,9 C 91 % 1023,4 hPa 0,0 l/m 0,0 km/h (0 Bft) NO 45 0 min 0,000 mm 0 W/m -3,2 C -1,9 C 3,2 km/h (1 Bft) 98 %
11.03.2016 06:20 -1,7 C -1,9 C -1,7 C 91 % 1023,4 hPa 0,0 l/m 0,0 km/h (0 Bft) NO 45 0 min 0,000 mm 0 W/m -3,0 C -1,7 C 6,4 km/h (2 Bft) 98 %
11.03.2016 06:30 -1,3 C -1,7 C -1,3 C 91 % 1023,5 hPa 0,0 l/m 0,0 km/h (0 Bft) NO 45 0 min 0,000 mm 0 W/m -2,6 C -1,3 C 3,2 km/h (1 Bft) 97 %
11.03.2016 06:40 -1,2 C -1,3 C -1,1 C 91 % 1023,6 hPa 0,0 l/m 0,0 km/h (0 Bft) NO 45 0 min 0,000 mm 0 W/m -2,5 C -1,2 C 1,6 km/h (1 Bft) 100 %
11.03.2016 06:50 -1,1 C -1,2 C -1,1 C 91 % 1023,6 hPa 0,0 l/m 0,0 km/h (0 Bft) NO 45 0 min 0,000 mm 0 W/m -2,4 C -1,1 C 3,2 km/h (1 Bft) 100 %
11.03.2016 07:00 -1,0 C -1,1 C -0,9 C 91 % 1023,7 hPa 0,0 l/m 0,0 km/h (0 Bft) N 0 0 min 0,000 mm 11 W/m -2,3 C -1,0 C 0,0 km/h (0 Bft) 99 %
11.03.2016 07:10 -0,9 C -0,9 C -0,9 C 91 % 1023,6 hPa 0,0 l/m 0,0 km/h (0 Bft) N 0 0 min 0,000 mm 18 W/m -2,2 C -0,9 C 0,0 km/h (0 Bft) 100 %
11.03.2016 07:20 -0,9 C -0,9 C -0,9 C 91 % 1023,7 hPa 0,0 l/m 0,0 km/h (0 Bft) N 0 0 min 0,000 mm 25 W/m -2,2 C -0,9 C 0,0 km/h (0 Bft) 100 %
11.03.2016 07:30 -0,9 C -0,9 C -0,9 C 91 % 1023,7 hPa 0,0 l/m 0,0 km/h (0 Bft) N 0 0 min 0,000 mm 37 W/m -2,2 C -0,9 C 0,0 km/h (0 Bft) 100 %
11.03.2016 07:40 -0,9 C -0,9 C -0,9 C 91 % 1023,9 hPa 0,0 l/m 0,0 km/h (0 Bft) N 0 0 min 0,000 mm 44 W/m -2,2 C -0,9 C 0,0 km/h (0 Bft) 100 %
11.03.2016 07:50 -0,9 C -0,9 C -0,9 C 91 % 1024,0 hPa 0,0 l/m 0,0 km/h (0 Bft) N 0 0 min 0,000 mm 47 W/m -2,2 C -0,9 C 0,0 km/h (0 Bft) 100 %
11.03.2016 08:00 -0,7 C -0,9 C -0,7 C 92 % 1024,0 hPa 0,0 l/m 0,0 km/h (0 Bft) N 0 0 min 0,000 mm 51 W/m -1,8 C -0,7 C 0,0 km/h (0 Bft) 100 %
11.03.2016 08:10 -0,4 C -0,7 C -0,4 C 91 % 1024,1 hPa 0,0 l/m 0,0 km/h (0 Bft) NO 45 0 min 0,000 mm 67 W/m -1,7 C -0,4 C 3,2 km/h (1 Bft) 99 %
11.03.2016 08:20 -0,1 C -0,4 C -0,1 C 91 % 1024,1 hPa 0,0 l/m 0,0 km/h (0 Bft) N 0 0 min 0,000 mm 93 W/m -1,4 C -0,1 C 0,0 km/h (0 Bft) 100 %
11.03.2016 08:30 0,1 C -0,1 C 0,1 C 91 % 1024,1 hPa 0,0 l/m 0,0 km/h (0 Bft) NO 45 0 min 0,000 mm 84 W/m -1,2 C 0,1 C 1,6 km/h (1 Bft) 100 %
11.03.2016 08:40 0,3 C 0,1 C 0,3 C 91 % 1024,1 hPa 0,0 l/m 0,0 km/h (0 Bft) N 0 0 min 0,000 mm 109 W/m -1,0 C 0,3 C 0,0 km/h (0 Bft) 100 %
11.03.2016 08:50 0,6 C 0,3 C 0,6 C 91 % 1024,1 hPa 0,0 l/m 0,0 km/h (0 Bft) NO 45 0 min 0,000 mm 114 W/m -0,7 C 0,6 C 1,6 km/h (1 Bft) 100 %
11.03.2016 09:00 1,0 C 0,6 C 1,0 C 91 % 1024,2 hPa 0,0 l/m 0,0 km/h (0 Bft) NO 45 0 min 0,025 mm 109 W/m -0,3 C 1,0 C 1,6 km/h (1 Bft) 100 %
11.03.2016 09:10 1,4 C 1,0 C 1,4 C 92 % 1024,3 hPa 0,0 l/m 1,6 km/h (1 Bft) NO 45 0 min 0,000 mm 120 W/m 0,2 C 1,4 C 4,8 km/h (1 Bft) 89 %
11.03.2016 09:20 1,6 C 1,4 C 1,6 C 91 % 1024,4 hPa 0,0 l/m 0,0 km/h (0 Bft) NO 45 0 min 0,000 mm 120 W/m 0,3 C 1,6 C 3,2 km/h (1 Bft) 100 %
11.03.2016 09:30 1,8 C 1,6 C 1,8 C 92 % 1024,2 hPa 0,0 l/m 0,0 km/h (0 Bft) NO 45 0 min 0,000 mm 135 W/m 0,6 C 1,8 C 3,2 km/h (1 Bft) 100 %
11.03.2016 09:40 2,1 C 1,8 C 2,1 C 92 % 1024,3 hPa 0,0 l/m 0,0 km/h (0 Bft) NO 45 10 min 0,000 mm 160 W/m 0,9 C 2,1 C 3,2 km/h (1 Bft) 100 %
11.03.2016 09:50 2,3 C 2,1 C 2,3 C 91 % 1024,3 hPa 0,0 l/m 1,6 km/h (1 Bft) NO 45 10 min 0,000 mm 165 W/m 1,0 C 2,3 C 6,4 km/h (2 Bft) 100 %
11.03.2016 10:00 2,7 C 2,3 C 2,7 C 91 % 1024,3 hPa 0,0 l/m 1,6 km/h (1 Bft) NO 45 10 min 0,051 mm 190 W/m 1,4 C 2,7 C 6,4 km/h (2 Bft) 100 %
11.03.2016 10:10 3,1 C 2,7 C 3,1 C 91 % 1024,3 hPa 0,0 l/m 1,6 km/h (1 Bft) NO 45 10 min 0,000 mm 246 W/m 1,8 C 3,1 C 6,4 km/h (2 Bft) 100 %
11.03.2016 10:20 3,6 C 3,1 C 3,6 C 92 % 1024,3 hPa 0,0 l/m 0,0 km/h (0 Bft) NO 45 10 min 0,000 mm 439 W/m 2,4 C 3,6 C 4,8 km/h (1 Bft) 100 %
11.03.2016 10:30 4,3 C 3,6 C 4,3 C 91 % 1024,4 hPa 0,0 l/m 0,0 km/h (0 Bft) O-NO 67 10 min 0,000 mm 490 W/m 3,0 C 4,3 C 6,4 km/h (2 Bft) 100 %
11.03.2016 10:40 5,0 C 4,3 C 5,0 C 88 % 1024,3 hPa 0,0 l/m 3,2 km/h (1 Bft) NO 45 10 min 0,000 mm 482 W/m 3,2 C 5,0 C 22,5 km/h (4 Bft) 100 %
11.03.2016 10:50 5,3 C 5,0 C 5,3 C 85 % 1024,3 hPa 0,0 l/m 3,2 km/h (1 Bft) NO 45 10 min 0,000 mm 468 W/m 3,0 C 5,3 C 9,7 km/h (2 Bft) 99 %
11.03.2016 11:00 5,4 C 5,3 C 5,4 C 85 % 1024,3 hPa 0,0 l/m 1,6 km/h (1 Bft) NO 45 10 min 0,127 mm 271 W/m 3,1 C 5,4 C 8,0 km/h (2 Bft) 100 %
11.03.2016 11:10 5,6 C 5,4 C 5,6 C 83 % 1024,4 hPa 0,0 l/m 1,6 km/h (1 Bft) NO 45 10 min 0,000 mm 272 W/m 2,9 C 5,6 C 8,0 km/h (2 Bft) 99 %
11.03.2016 11:20 5,8 C 5,6 C 5,8 C 82 % 1024,4 hPa 0,0 l/m 1,6 km/h (1 Bft) O 90 10 min 0,000 mm 287 W/m 3,0 C 5,8 C 11,3 km/h (2 Bft) 100 %
11.03.2016 11:30 5,9 C 5,8 C 5,9 C 82 % 1024,4 hPa 0,0 l/m 3,2 km/h (1 Bft) NO 45 10 min 0,000 mm 258 W/m 3,1 C 5,9 C 16,1 km/h (3 Bft) 100 %
11.03.2016 11:40 6,0 C 5,9 C 6,0 C 81 % 1024,5 hPa 0,0 l/m 3,2 km/h (1 Bft) NO 45 10 min 0,000 mm 329 W/m 3,0 C 6,0 C 19,3 km/h (3 Bft) 99 %
11.03.2016 11:50 6,1 C 6,0 C 6,1 C 81 % 1024,4 hPa 0,0 l/m 1,6 km/h (1 Bft) NO 45 10 min 0,000 mm 251 W/m 3,1 C 6,1 C 9,7 km/h (2 Bft) 100 %
11.03.2016 12:00 6,4 C 6,1 C 6,4 C 79 % 1024,6 hPa 0,0 l/m 3,2 km/h (1 Bft) O-SO 112 10 min 0,102 mm 350 W/m 3,0 C 6,4 C 16,1 km/h (3 Bft) 100 %
11.03.2016 12:10 6,6 C 6,4 C 6,6 C 78 % 1024,6 hPa 0,0 l/m 3,2 km/h (1 Bft) O-SO 112 10 min 0,000 mm 329 W/m 3,0 C 6,6 C 11,3 km/h (2 Bft) 100 %
11.03.2016 12:20 6,9 C 6,6 C 6,9 C 78 % 1024,7 hPa 0,0 l/m 1,6 km/h (1 Bft) O-SO 112 10 min 0,000 mm 417 W/m 3,3 C 6,9 C 9,7 km/h (2 Bft) 100 %
11.03.2016 12:30 7,3 C 6,9 C 7,3 C 76 % 1024,6 hPa 0,0 l/m 1,6 km/h (1 Bft) NO 45 10 min 0,000 mm 411 W/m 3,4 C 7,3 C 9,7 km/h (2 Bft) 100 %
11.03.2016 12:40 7,2 C 7,2 C 7,3 C 74 % 1024,6 hPa 0,0 l/m 1,6 km/h (1 Bft) O-NO 67 10 min 0,000 mm 195 W/m 2,9 C 7,2 C 11,3 km/h (2 Bft) 100 %
11.03.2016 12:50 7,2 C 7,1 C 7,2 C 76 % 1024,6 hPa 0,0 l/m 1,6 km/h (1 Bft) O 90 10 min 0,000 mm 281 W/m 3,3 C 7,2 C 9,7 km/h (2 Bft) 100 %
11.03.2016 13:00 7,5 C 7,2 C 7,5 C 75 % 1024,5 hPa 0,0 l/m 1,6 km/h (1 Bft) O-SO 112 10 min 0,127 mm 362 W/m 3,4 C 7,5 C 9,7 km/h (2 Bft) 100 %
11.03.2016 13:10 7,6 C 7,5 C 7,6 C 73 % 1024,4 hPa 0,0 l/m 3,2 km/h (1 Bft) O 90 10 min 0,000 mm 357 W/m 3,1 C 7,6 C 17,7 km/h (3 Bft) 100 %
11.03.2016 13:20 8,2 C 7,6 C 8,2 C 74 % 1024,3 hPa 0,0 l/m 0,0 km/h (0 Bft) NO 45 10 min 0,000 mm 506 W/m 3,8 C 8,2 C 1,6 km/h (1 Bft) 100 %
11.03.2016 13:30 8,9 C 8,2 C 8,9 C 71 % 1024,2 hPa 0,0 l/m 1,6 km/h (1 Bft) NO 45 10 min 0,000 mm 557 W/m 3,9 C 8,9 C 9,7 km/h (2 Bft) 100 %
11.03.2016 13:40 9,3 C 8,9 C 9,3 C 69 % 1024,2 hPa 0,0 l/m 1,6 km/h (1 Bft) O 90 10 min 0,000 mm 696 W/m 3,9 C 9,3 C 14,5 km/h (3 Bft) 99 %
11.03.2016 13:50 9,1 C 9,1 C 9,3 C 69 % 1024,1 hPa 0,0 l/m 1,6 km/h (1 Bft) NO 45 10 min 0,000 mm 468 W/m 3,7 C 9,1 C 9,7 km/h (2 Bft) 99 %
11.03.2016 14:00 8,6 C 8,6 C 9,1 C 69 % 1024,1 hPa 0,0 l/m 3,2 km/h (1 Bft) NO 45 10 min 0,178 mm 408 W/m 3,2 C 8,6 C 9,7 km/h (2 Bft) 97 %
11.03.2016 14:10 8,6 C 8,6 C 8,6 C 71 % 1024,1 hPa 0,0 l/m 1,6 km/h (1 Bft) NO 45 10 min 0,000 mm 471 W/m 3,6 C 8,6 C 9,7 km/h (2 Bft) 98 %
11.03.2016 14:20 9,0 C 8,6 C 9,0 C 67 % 1024,0 hPa 0,0 l/m 1,6 km/h (1 Bft) NO 45 10 min 0,000 mm 568 W/m 3,2 C 9,0 C 11,3 km/h (2 Bft) 98 %
11.03.2016 14:30 8,9 C 8,9 C 9,1 C 69 % 1024,0 hPa 0,0 l/m 3,2 km/h (1 Bft) NO 45 10 min 0,000 mm 190 W/m 3,5 C 8,9 C 11,3 km/h (2 Bft) 98 %
11.03.2016 14:40 8,9 C 8,8 C 8,9 C 68 % 1023,9 hPa 0,0 l/m 0,0 km/h (0 Bft) N-NO 22 10 min 0,000 mm 563 W/m 3,3 C 8,9 C 1,6 km/h (1 Bft) 98 %
11.03.2016 14:50 8,8 C 8,8 C 9,0 C 67 % 1024,0 hPa 0,0 l/m 3,2 km/h (1 Bft) NO 45 10 min 0,000 mm 188 W/m 3,0 C 8,8 C 11,3 km/h (2 Bft) 97 %
11.03.2016 15:00 8,5 C 8,5 C 8,8 C 66 % 1023,9 hPa 0,0 l/m 1,6 km/h (1 Bft) NO 45 10 min 0,127 mm 214 W/m 2,5 C 8,5 C 9,7 km/h (2 Bft) 98 %
11.03.2016 15:10 8,9 C 8,6 C 8,9 C 67 % 1023,9 hPa 0,0 l/m 1,6 km/h (1 Bft) N-NO 22 10 min 0,000 mm 200 W/m 3,1 C 8,9 C 11,3 km/h (2 Bft) 97 %
11.03.2016 15:20 9,0 C 8,9 C 9,0 C 68 % 1023,9 hPa 0,0 l/m 1,6 km/h (1 Bft) NO 45 10 min 0,000 mm 244 W/m 3,4 C 9,0 C 9,7 km/h (2 Bft) 98 %
11.03.2016 15:30 9,2 C 9,0 C 9,3 C 63 % 1024,0 hPa 0,0 l/m 3,2 km/h (1 Bft) NO 45 10 min 0,000 mm 246 W/m 2,5 C 9,2 C 9,7 km/h (2 Bft) 97 %
11.03.2016 15:40 8,9 C 8,9 C 9,2 C 64 % 1024,0 hPa 0,0 l/m 1,6 km/h (1 Bft) NO 45 10 min 0,000 mm 169 W/m 2,5 C 8,9 C 9,7 km/h (2 Bft) 98 %
11.03.2016 15:50 8,5 C 8,5 C 8,9 C 67 % 1024,0 hPa 0,0 l/m 0,0 km/h (0 Bft) NO 45 0 min 0,000 mm 139 W/m 2,7 C 8,5 C 4,8 km/h (1 Bft) 97 %
11.03.2016 16:00 8,4 C 8,4 C 8,5 C 67 % 1024,1 hPa 0,0 l/m 0,0 km/h (0 Bft) NO 45 0 min 0,076 mm 151 W/m 2,6 C 8,4 C 6,4 km/h (2 Bft) 97 %
11.03.2016 16:10 8,2 C 8,2 C 8,4 C 65 % 1024,1 hPa 0,0 l/m 1,6 km/h (1 Bft) NO 45 0 min 0,000 mm 51 W/m 2,0 C 8,2 C 8,0 km/h (2 Bft) 98 %
11.03.2016 16:20 8,0 C 8,0 C 8,2 C 66 % 1024,2 hPa 0,0 l/m 0,0 km/h (0 Bft) NO 45 0 min 0,000 mm 79 W/m 2,0 C 8,0 C 6,4 km/h (2 Bft) 97 %
11.03.2016 16:30 7,9 C 7,9 C 8,0 C 67 % 1024,2 hPa 0,0 l/m 0,0 km/h (0 Bft) N 360 0 min 0,000 mm 83 W/m 2,2 C 7,9 C 1,6 km/h (1 Bft) 98 %
11.03.2016 16:40 7,9 C 7,9 C 7,9 C 69 % 1024,2 hPa 0,0 l/m 0,0 km/h (0 Bft) N 0 0 min 0,000 mm 97 W/m 2,6 C 7,9 C 0,0 km/h (0 Bft) 97 %
11.03.2016 16:50 7,8 C 7,8 C 7,9 C 66 % 1024,2 hPa 0,0 l/m 3,2 km/h (1 Bft) NO 45 0 min 0,000 mm 62 W/m 1,9 C 7,8 C 9,7 km/h (2 Bft) 98 %
11.03.2016 17:00 7,5 C 7,5 C 7,8 C 68 % 1024,2 hPa 0,0 l/m 6,4 km/h (2 Bft) NO 45 0 min 0,025 mm 30 W/m 2,0 C 7,5 C 11,3 km/h (2 Bft) 98 %
11.03.2016 17:10 7,3 C 7,3 C 7,5 C 68 % 1024,3 hPa 0,0 l/m 3,2 km/h (1 Bft) NO 45 0 min 0,000 mm 21 W/m 1,8 C 7,3 C 11,3 km/h (2 Bft) 97 %
11.03.2016 17:20 7,1 C 7,1 C 7,5 C 68 % 1024,2 hPa 0,0 l/m 3,2 km/h (1 Bft) NO 45 0 min 0,000 mm 23 W/m 1,6 C 7,1 C 9,7 km/h (2 Bft) 99 %
11.03.2016 17:30 7,0 C 7,0 C 7,1 C 69 % 1024,3 hPa 0,0 l/m 1,9 km/h (1 Bft) NO 38 0 min 0,000 mm 19 W/m 1,7 C 7,0 C 8,0 km/h (2 Bft) 100 %
11.03.2016 17:40 6,9 C 6,9 C 7,0 C 69 % 1024,4 hPa 0,0 l/m 4,0 km/h (1 Bft) NO 47 0 min 0,000 mm 16 W/m 1,6 C 6,9 C 11,3 km/h (2 Bft) 100 %
11.03.2016 17:50 6,9 C 6,9 C 6,9 C 69 % 1024,6 hPa 0,0 l/m 5,4 km/h (1 Bft) NO 46 0 min 0,000 mm 11 W/m 1,6 C 6,9 C 16,1 km/h (3 Bft) 99 %
11.03.2016 18:00 6,8 C 6,8 C 6,9 C 69 % 1024,7 hPa 0,0 l/m 1,8 km/h (1 Bft) NO 34 0 min 0,026 mm 9 W/m 1,5 C 6,8 C 9,7 km/h (2 Bft) 100 %
11.03.2016 18:10 6,7 C 6,7 C 6,8 C 70 % 1024,8 hPa 0,0 l/m 1,5 km/h (1 Bft) NO 53 0 min 0,000 mm 0 W/m 1,6 C 6,7 C 8,0 km/h (2 Bft) 100 %
11.03.2016 18:20 6,6 C 6,6 C 6,7 C 70 % 1024,9 hPa 0,0 l/m 1,9 km/h (1 Bft) NO 42 0 min 0,000 mm 0 W/m 1,5 C 6,6 C 11,3 km/h (2 Bft) 100 %
11.03.2016 18:30 6,4 C 6,4 C 6,6 C 71 % 1024,9 hPa 0,0 l/m 3,3 km/h (1 Bft) NO 40 0 min 0,000 mm 0 W/m 1,5 C 6,4 C 11,3 km/h (2 Bft) 99 %
11.03.2016 18:40 6,3 C 6,3 C 6,4 C 72 % 1024,9 hPa 0,0 l/m 1,5 km/h (1 Bft) NO 36 0 min 0,000 mm 0 W/m 1,6 C 6,3 C 8,0 km/h (2 Bft) 100 %
11.03.2016 18:50 6,2 C 6,2 C 6,3 C 71 % 1025,2 hPa 0,0 l/m 2,6 km/h (1 Bft) NO 40 0 min 0,000 mm 0 W/m 1,3 C 6,2 C 11,3 km/h (2 Bft) 91 %
11.03.2016 19:00 6,1 C 6,1 C 6,2 C 71 % 1025,2 hPa 0,0 l/m 4,1 km/h (1 Bft) NO 35 0 min 0,000 mm 0 W/m 1,2 C 6,1 C 11,3 km/h (2 Bft) 100 %
11.03.2016 19:10 6,0 C 6,0 C 6,1 C 72 % 1025,4 hPa 0,0 l/m 1,5 km/h (1 Bft) N-NO 28 0 min 0,000 mm 0 W/m 1,3 C 6,0 C 9,7 km/h (2 Bft) 100 %
11.03.2016 19:20 5,8 C 5,8 C 6,0 C 72 % 1025,4 hPa 0,0 l/m 3,1 km/h (1 Bft) NO 38 0 min 0,000 mm 0 W/m 1,2 C 5,8 C 9,7 km/h (2 Bft) 100 %
11.03.2016 19:30 5,7 C 5,7 C 5,8 C 72 % 1025,6 hPa 0,0 l/m 4,3 km/h (1 Bft) NO 49 0 min 0,000 mm 0 W/m 1,1 C 5,7 C 14,5 km/h (3 Bft) 100 %
11.03.2016 19:40 5,6 C 5,6 C 5,7 C 72 % 1025,7 hPa 0,0 l/m 3,1 km/h (1 Bft) NO 34 0 min 0,000 mm 0 W/m 1,0 C 5,6 C 14,5 km/h (3 Bft) 100 %
11.03.2016 19:50 5,6 C 5,6 C 5,6 C 71 % 1025,7 hPa 0,0 l/m 6,0 km/h (2 Bft) NO 35 0 min 0,000 mm 0 W/m 0,8 C 5,6 C 16,1 km/h (3 Bft) 94 %
11.03.2016 20:00 5,4 C 5,4 C 5,6 C 72 % 1025,9 hPa 0,0 l/m 4,6 km/h (1 Bft) N-NO 30 0 min 0,025 mm 0 W/m 0,8 C 5,4 C 11,3 km/h (2 Bft) 96 %
11.03.2016 20:10 5,2 C 5,2 C 5,4 C 72 % 1025,9 hPa 0,0 l/m 3,6 km/h (1 Bft) NO 48 0 min 0,000 mm 0 W/m 0,6 C 5,2 C 9,7 km/h (2 Bft) 99 %
11.03.2016 20:20 5,1 C 5,1 C 5,2 C 73 % 1026,1 hPa 0,0 l/m 1,9 km/h (1 Bft) NO 55 0 min 0,000 mm 0 W/m 0,7 C 5,1 C 8,0 km/h (2 Bft) 100 %
11.03.2016 20:30 4,8 C 4,8 C 5,1 C 73 % 1026,1 hPa 0,0 l/m 2,1 km/h (1 Bft) NO 51 0 min 0,000 mm 0 W/m 0,4 C 4,8 C 8,0 km/h (2 Bft) 98 %
11.03.2016 20:40 4,6 C 4,6 C 4,8 C 72 % 1026,3 hPa 0,0 l/m 1,8 km/h (1 Bft) N-NO 32 0 min 0,000 mm 0 W/m -0,0 C 4,6 C 8,0 km/h (2 Bft) 97 %
11.03.2016 20:50 4,2 C 4,2 C 4,6 C 74 % 1026,3 hPa 0,0 l/m 1,6 km/h (1 Bft) NO 44 0 min 0,000 mm 0 W/m -0,0 C 4,2 C 8,0 km/h (2 Bft) 98 %
11.03.2016 21:00 3,8 C 3,8 C 4,2 C 75 % 1026,3 hPa 0,0 l/m 2,1 km/h (1 Bft) NO 38 0 min 0,000 mm 0 W/m -0,2 C 3,8 C 6,4 km/h (2 Bft) 97 %
11.03.2016 21:10 3,6 C 3,6 C 4,2 C 76 % 1026,3 hPa 0,0 l/m 5,3 km/h (1 Bft) NO 38 0 min 0,025 mm 0 W/m -0,2 C 3,6 C 6,4 km/h (2 Bft) 98 %
11.03.2016 21:20 3,3 C 3,3 C 3,6 C 77 % 1026,4 hPa 0,0 l/m 4,8 km/h (1 Bft) NO 45 0 min 0,000 mm 0 W/m -0,3 C 3,3 C 9,7 km/h (2 Bft) 99 %
11.03.2016 21:30 3,1 C 3,1 C 3,3 C 78 % 1026,3 hPa 0,0 l/m 3,2 km/h (1 Bft) NO 45 0 min 0,000 mm 0 W/m -0,4 C 3,1 C 8,0 km/h (2 Bft) 100 %
11.03.2016 21:40 2,9 C 2,9 C 3,1 C 78 % 1026,4 hPa 0,0 l/m 0,0 km/h (0 Bft) NO 45 0 min 0,000 mm 0 W/m -0,5 C 2,9 C 6,4 km/h (2 Bft) 100 %
11.03.2016 21:50 2,7 C 2,7 C 2,9 C 79 % 1026,5 hPa 0,0 l/m 0,0 km/h (0 Bft) N-NO 22 0 min 0,000 mm 0 W/m -0,6 C 2,7 C 1,6 km/h (1 Bft) 100 %
11.03.2016 22:00 2,5 C 2,5 C 2,7 C 80 % 1026,5 hPa 0,0 l/m 0,0 km/h (0 Bft) N-NO 22 0 min 0,025 mm 0 W/m -0,6 C 2,5 C 1,6 km/h (1 Bft) 100 %
11.03.2016 22:10 2,3 C 2,3 C 2,5 C 80 % 1026,5 hPa 0,0 l/m 0,0 km/h (0 Bft) N-NO 22 0 min 0,000 mm 0 W/m -0,8 C 2,3 C 1,6 km/h (1 Bft) 100 %
11.03.2016 22:20 2,1 C 2,1 C 2,3 C 81 % 1026,6 hPa 0,0 l/m 0,0 km/h (0 Bft) N-NO 22 0 min 0,000 mm 0 W/m -0,8 C 2,1 C 1,6 km/h (1 Bft) 100 %
11.03.2016 22:30 1,8 C 1,8 C 2,1 C 82 % 1026,5 hPa 0,0 l/m 0,0 km/h (0 Bft) N 0 0 min 0,000 mm 0 W/m -0,9 C 1,8 C 0,0 km/h (0 Bft) 100 %
11.03.2016 22:40 1,5 C 1,5 C 1,8 C 83 % 1026,6 hPa 0,0 l/m 0,0 km/h (0 Bft) N-NO 22 0 min 0,000 mm 0 W/m -1,1 C 1,5 C 1,6 km/h (1 Bft) 99 %
11.03.2016 22:50 1,3 C 1,3 C 1,5 C 83 % 1026,5 hPa 0,0 l/m 0,0 km/h (0 Bft) N 0 0 min 0,000 mm 0 W/m -1,3 C 1,3 C 0,0 km/h (0 Bft) 100 %
11.03.2016 23:00 1,2 C 1,2 C 1,3 C 84 % 1026,5 hPa 0,0 l/m 0,0 km/h (0 Bft) N-NO 22 0 min 0,000 mm 0 W/m -1,2 C 1,2 C 3,2 km/h (1 Bft) 99 %
11.03.2016 23:10 1,2 C 1,2 C 1,2 C 84 % 1026,5 hPa 0,0 l/m 0,0 km/h (0 Bft) N-NO 22 0 min 0,000 mm 0 W/m -1,2 C 1,2 C 3,2 km/h (1 Bft) 93 %
11.03.2016 23:20 1,2 C 1,2 C 1,2 C 84 % 1026,5 hPa 0,0 l/m 0,0 km/h (0 Bft) N-NO 22 0 min 0,000 mm 0 W/m -1,2 C 1,2 C 1,6 km/h (1 Bft) 94 %
11.03.2016 23:30 1,1 C 1,1 C 1,2 C 85 % 1026,6 hPa 0,0 l/m 0,0 km/h (0 Bft) N-NO 22 0 min 0,000 mm 0 W/m -1,1 C 1,1 C 4,8 km/h (1 Bft) 100 %
11.03.2016 23:40 1,3 C 1,1 C 1,3 C 85 % 1026,6 hPa 0,0 l/m 4,8 km/h (1 Bft) NO 45 0 min 0,000 mm 0 W/m -0,9 C 1,3 C 8,0 km/h (2 Bft) 100 %
11.03.2016 23:50 1,4 C 1,3 C 1,4 C 85 % 1026,5 hPa 0,0 l/m 1,6 km/h (1 Bft) NO 45 0 min 0,000 mm 0 W/m -0,8 C 1,4 C 6,4 km/h (2 Bft) 100 %
_ Min-Zeit 05:30 05:30 05:30 15:30 00:00 - 00:20 - - - - - 05:30 05:30 00:40 04:10
Minimum _ -2,2 C -2,2 C -2,1 C 63 % 1022,1 hPa - 0,0 km/h (0 Bft) - - - - - -3,5 C -2,2 C 0,0 km/h (0 Bft) 88 %
_ Max-Zeit 13:40 13:50 13:40 08:00 22:20 00:00 17:00 - - 09:40 14:00 13:40 13:30 13:40 10:40 08:00
Maximum _ 9,3 C 9,1 C 9,3 C 92 % 1026,6 hPa 0,0 l/m 6,4 km/h
NO (2 Bft)
- - 10 min 0,178 mm 696 W/m 3,9 C 9,3 C 22,5 km/h
N-NO (4 Bft)
100 %
Durchschnitt _ 3,1 C 3,1 C 3,2 C 81 % 1024,3 hPa #0,0 l/m 1,2 km/h (1 Bft) NO - #6:10 h #0,939 mm 219 W/m 0,1 C 3,1 C 5,6 km/h (1 Bft) 98 %
PRIVATE WETTERSTATION BILLIGHEIM-ALLFELD - www.neckar-odenwald-wetter.de - Holger Sonntag